sensor_id;sensor_type;location;lat;lon;timestamp;pressure;altitude;pressure_sealevel;temperature;humidity
74524;BME280;63074;44.696;10.358;2023-05-19T00:00:23;100215.63;;;16.73;100.00
74524;BME280;63074;44.696;10.358;2023-05-19T00:02:49;100222.09;;;16.52;100.00
74524;BME280;63074;44.696;10.358;2023-05-19T00:05:16;100224.53;;;16.38;100.00
74524;BME280;63074;44.696;10.358;2023-05-19T00:07:43;100234.25;;;16.29;100.00
74524;BME280;63074;44.696;10.358;2023-05-19T00:10:11;100248.63;;;16.14;100.00
74524;BME280;63074;44.696;10.358;2023-05-19T00:12:38;100261.59;;;16.17;100.00
74524;BME280;63074;44.696;10.358;2023-05-19T00:15:05;100262.22;;;16.55;100.00
74524;BME280;63074;44.696;10.358;2023-05-19T00:17:31;100258.75;;;16.65;100.00
74524;BME280;63074;44.696;10.358;2023-05-19T00:19:59;100254.88;;;16.35;100.00
74524;BME280;63074;44.696;10.358;2023-05-19T00:22:25;100262.22;;;16.50;100.00
74524;BME280;63074;44.696;10.358;2023-05-19T00:24:52;100258.69;;;16.34;100.00
74524;BME280;63074;44.696;10.358;2023-05-19T00:27:19;100267.59;;;16.19;100.00
74524;BME280;63074;44.696;10.358;2023-05-19T00:29:45;100260.59;;;16.44;100.00
74524;BME280;63074;44.696;10.358;2023-05-19T00:32:11;100273.59;;;16.37;100.00
74524;BME280;63074;44.696;10.358;2023-05-19T00:34:38;100259.78;;;16.48;100.00
74524;BME280;63074;44.696;10.358;2023-05-19T00:37:04;100262.22;;;16.50;100.00
74524;BME280;63074;44.696;10.358;2023-05-19T00:39:30;100271.66;;;16.12;100.00
74524;BME280;63074;44.696;10.358;2023-05-19T00:41:56;100268.38;;;16.05;100.00
74524;BME280;63074;44.696;10.358;2023-05-19T00:44:22;100266.09;;;15.76;100.00
74524;BME280;63074;44.696;10.358;2023-05-19T00:46:49;100276.41;;;15.79;100.00
74524;BME280;63074;44.696;10.358;2023-05-19T00:49:15;100274.28;;;15.86;100.00
74524;BME280;63074;44.696;10.358;2023-05-19T00:51:41;100278.91;;;15.96;100.00
74524;BME280;63074;44.696;10.358;2023-05-19T00:54:08;100271.13;;;16.15;100.00
74524;BME280;63074;44.696;10.358;2023-05-19T00:56:34;100261.34;;;16.14;100.00
74524;BME280;63074;44.696;10.358;2023-05-19T00:59:00;100254.19;;;15.82;100.00
74524;BME280;63074;44.696;10.358;2023-05-19T01:01:27;100258.00;;;15.86;100.00
74524;BME280;63074;44.696;10.358;2023-05-19T01:03:53;100256.16;;;16.02;100.00
74524;BME280;63074;44.696;10.358;2023-05-19T01:06:23;100258.31;;;16.00;100.00
74524;BME280;63074;44.696;10.358;2023-05-19T01:08:50;100266.44;;;15.95;100.00
74524;BME280;63074;44.696;10.358;2023-05-19T01:11:18;100268.44;;;15.20;100.00
74524;BME280;63074;44.696;10.358;2023-05-19T01:13:44;100287.66;;;15.56;100.00
74524;BME280;63074;44.696;10.358;2023-05-19T01:16:29;100267.38;;;16.41;100.00
74524;BME280;63074;44.696;10.358;2023-05-19T01:27:52;100286.19;;;15.43;100.00
74524;BME280;63074;44.696;10.358;2023-05-19T01:30:27;100293.38;;;15.23;100.00
74524;BME280;63074;44.696;10.358;2023-05-19T01:32:59;100296.63;;;15.25;100.00
74524;BME280;63074;44.696;10.358;2023-05-19T01:35:26;100297.38;;;15.15;100.00
74524;BME280;63074;44.696;10.358;2023-05-19T01:37:57;100302.09;;;15.30;100.00
74524;BME280;63074;44.696;10.358;2023-05-19T01:40:25;100299.78;;;15.11;100.00
74524;BME280;63074;44.696;10.358;2023-05-19T01:42:59;100299.16;;;14.99;100.00
74524;BME280;63074;44.696;10.358;2023-05-19T01:45:28;100288.31;;;15.36;100.00
74524;BME280;63074;44.696;10.358;2023-05-19T01:47:57;100284.09;;;15.13;100.00
74524;BME280;63074;44.696;10.358;2023-05-19T01:50:23;100269.47;;;15.14;100.00
74524;BME280;63074;44.696;10.358;2023-05-19T01:52:50;100263.47;;;15.49;100.00
74524;BME280;63074;44.696;10.358;2023-05-19T01:55:17;100249.75;;;15.19;100.00
74524;BME280;63074;44.696;10.358;2023-05-19T01:57:51;100262.78;;;15.22;100.00
74524;BME280;63074;44.696;10.358;2023-05-19T02:05:51;100262.22;;;15.62;100.00
74524;BME280;63074;44.696;10.358;2023-05-19T02:08:33;100267.63;;;15.57;100.00
74524;BME280;63074;44.696;10.358;2023-05-19T02:11:13;100266.97;;;15.45;100.00
74524;BME280;63074;44.696;10.358;2023-05-19T02:13:43;100268.59;;;15.46;100.00
74524;BME280;63074;44.696;10.358;2023-05-19T02:16:11;100264.84;;;15.52;100.00
74524;BME280;63074;44.696;10.358;2023-05-19T02:18:39;100264.88;;;15.15;100.00
74524;BME280;63074;44.696;10.358;2023-05-19T02:21:10;100269.47;;;15.14;100.00
74524;BME280;63074;44.696;10.358;2023-05-19T02:23:42;100271.84;;;15.01;100.00
74524;BME280;63074;44.696;10.358;2023-05-19T02:26:08;100277.25;;;15.06;100.00
74524;BME280;63074;44.696;10.358;2023-05-19T02:28:34;100273.06;;;14.88;100.00
74524;BME280;63074;44.696;10.358;2023-05-19T02:31:02;100267.00;;;15.08;100.00
74524;BME280;63074;44.696;10.358;2023-05-19T02:33:30;100259.66;;;15.03;100.00
74524;BME280;63074;44.696;10.358;2023-05-19T02:35:56;100261.34;;;14.77;100.00
74524;BME280;63074;44.696;10.358;2023-05-19T02:38:23;100262.09;;;14.68;100.00
74524;BME280;63074;44.696;10.358;2023-05-19T02:40:51;100262.84;;;14.63;100.00
74524;BME280;63074;44.696;10.358;2023-05-19T02:43:18;100267.44;;;14.63;100.00
74524;BME280;63074;44.696;10.358;2023-05-19T02:45:44;100256.13;;;14.66;100.00
74524;BME280;63074;44.696;10.358;2023-05-19T02:48:10;100252.66;;;14.75;100.00
74524;BME280;63074;44.696;10.358;2023-05-19T02:50:36;100258.91;;;14.49;100.00
74524;BME280;63074;44.696;10.358;2023-05-19T02:53:03;100257.59;;;14.51;100.00
74524;BME280;63074;44.696;10.358;2023-05-19T02:55:29;100249.50;;;14.83;100.00
74524;BME280;63074;44.696;10.358;2023-05-19T02:57:56;100246.38;;;14.97;100.00
74524;BME280;63074;44.696;10.358;2023-05-19T03:00:22;100246.00;;;14.88;100.00
74524;BME280;63074;44.696;10.358;2023-05-19T03:02:48;100247.03;;;14.82;100.00
74524;BME280;63074;44.696;10.358;2023-05-19T03:05:14;100237.94;;;14.61;100.00
74524;BME280;63074;44.696;10.358;2023-05-19T03:07:41;100245.56;;;14.96;100.00
74524;BME280;63074;44.696;10.358;2023-05-19T03:10:08;100242.59;;;14.66;100.00
74524;BME280;63074;44.696;10.358;2023-05-19T03:12:34;100251.91;;;14.80;100.00
74524;BME280;63074;44.696;10.358;2023-05-19T03:15:00;100251.06;;;14.47;100.00
74524;BME280;63074;44.696;10.358;2023-05-19T03:17:27;100259.34;;;14.63;100.00
74524;BME280;63074;44.696;10.358;2023-05-19T03:19:58;100255.38;;;14.43;100.00
74524;BME280;63074;44.696;10.358;2023-05-19T03:22:25;100257.66;;;14.57;100.00
74524;BME280;63074;44.696;10.358;2023-05-19T03:24:51;100255.22;;;14.33;100.00
74524;BME280;63074;44.696;10.358;2023-05-19T03:27:19;100261.53;;;14.17;100.00
74524;BME280;63074;44.696;10.358;2023-05-19T03:29:45;100269.00;;;14.32;100.00
74524;BME280;63074;44.696;10.358;2023-05-19T03:32:11;100272.47;;;14.27;100.00
74524;BME280;63074;44.696;10.358;2023-05-19T03:34:37;100270.38;;;14.34;100.00
74524;BME280;63074;44.696;10.358;2023-05-19T03:37:04;100269.19;;;14.47;100.00
74524;BME280;63074;44.696;10.358;2023-05-19T03:39:30;100271.47;;;14.33;100.00
74524;BME280;63074;44.696;10.358;2023-05-19T03:41:56;100273.53;;;14.26;100.00
74524;BME280;63074;44.696;10.358;2023-05-19T03:44:22;100283.19;;;14.44;100.00
74524;BME280;63074;44.696;10.358;2023-05-19T03:46:50;100281.84;;;14.41;100.00
74524;BME280;63074;44.696;10.358;2023-05-19T03:49:17;100278.97;;;14.53;100.00
74524;BME280;63074;44.696;10.358;2023-05-19T03:51:45;100277.16;;;14.37;100.00
74524;BME280;63074;44.696;10.358;2023-05-19T03:54:11;100276.19;;;14.43;100.00
74524;BME280;63074;44.696;10.358;2023-05-19T03:56:42;100282.56;;;14.37;100.00
74524;BME280;63074;44.696;10.358;2023-05-19T03:59:08;100283.00;;;14.50;100.00
74524;BME280;63074;44.696;10.358;2023-05-19T04:01:37;100286.56;;;14.56;100.00
74524;BME280;63074;44.696;10.358;2023-05-19T04:04:04;100291.34;;;14.76;100.00
74524;BME280;63074;44.696;10.358;2023-05-19T04:06:30;100290.84;;;14.79;100.00
74524;BME280;63074;44.696;10.358;2023-05-19T04:08:56;100303.38;;;14.36;100.00
74524;BME280;63074;44.696;10.358;2023-05-19T04:11:22;100318.06;;;14.67;100.00
74524;BME280;63074;44.696;10.358;2023-05-19T04:13:51;100315.44;;;14.77;100.00
74524;BME280;63074;44.696;10.358;2023-05-19T04:16:17;100313.81;;;14.49;100.00
74524;BME280;63074;44.696;10.358;2023-05-19T04:18:44;100398.00;;;14.36;100.00
74524;BME280;63074;44.696;10.358;2023-05-19T04:21:11;100437.66;;;14.69;100.00
74524;BME280;63074;44.696;10.358;2023-05-19T04:23:37;100412.81;;;14.77;100.00
74524;BME280;63074;44.696;10.358;2023-05-19T04:26:03;100360.06;;;14.75;100.00
74524;BME280;63074;44.696;10.358;2023-05-19T04:28:31;100329.78;;;14.78;100.00
74524;BME280;63074;44.696;10.358;2023-05-19T04:31:00;100322.09;;;14.65;100.00
74524;BME280;63074;44.696;10.358;2023-05-19T04:33:28;100321.22;;;14.59;100.00
74524;BME280;63074;44.696;10.358;2023-05-19T04:35:54;100323.88;;;14.32;100.00
74524;BME280;63074;44.696;10.358;2023-05-19T04:38:20;100332.75;;;14.28;100.00
74524;BME280;63074;44.696;10.358;2023-05-19T04:40:47;100333.88;;;14.32;100.00
74524;BME280;63074;44.696;10.358;2023-05-19T04:43:15;100344.03;;;14.41;100.00
74524;BME280;63074;44.696;10.358;2023-05-19T04:45:41;100341.38;;;14.73;100.00
74524;BME280;63074;44.696;10.358;2023-05-19T04:48:07;100337.19;;;14.61;100.00
74524;BME280;63074;44.696;10.358;2023-05-19T04:50:33;100338.53;;;14.36;100.00
74524;BME280;63074;44.696;10.358;2023-05-19T04:53:01;100338.41;;;14.04;100.00
74524;BME280;63074;44.696;10.358;2023-05-19T04:55:27;100352.66;;;14.22;100.00
74524;BME280;63074;44.696;10.358;2023-05-19T04:57:59;100350.72;;;14.61;100.00
74524;BME280;63074;44.696;10.358;2023-05-19T05:00:26;100347.66;;;14.30;100.00
74524;BME280;63074;44.696;10.358;2023-05-19T05:02:53;100347.34;;;14.27;100.00
74524;BME280;63074;44.696;10.358;2023-05-19T05:05:22;100353.25;;;14.24;100.00
74524;BME280;63074;44.696;10.358;2023-05-19T05:07:49;100367.97;;;14.11;100.00
74524;BME280;63074;44.696;10.358;2023-05-19T05:10:15;100379.53;;;13.90;100.00
74524;BME280;63074;44.696;10.358;2023-05-19T05:12:41;100378.06;;;13.99;100.00
74524;BME280;63074;44.696;10.358;2023-05-19T05:15:08;100357.81;;;14.01;100.00
74524;BME280;63074;44.696;10.358;2023-05-19T05:17:35;100357.41;;;14.09;100.00
74524;BME280;63074;44.696;10.358;2023-05-19T05:20:03;100360.53;;;14.45;100.00
74524;BME280;63074;44.696;10.358;2023-05-19T05:22:31;100345.44;;;14.49;100.00
74524;BME280;63074;44.696;10.358;2023-05-19T05:24:57;100351.91;;;14.43;100.00
74524;BME280;63074;44.696;10.358;2023-05-19T05:27:24;100343.06;;;14.52;100.00
74524;BME280;63074;44.696;10.358;2023-05-19T05:29:51;100338.84;;;14.62;100.00
74524;BME280;63074;44.696;10.358;2023-05-19T05:32:17;100347.09;;;14.77;100.00
74524;BME280;63074;44.696;10.358;2023-05-19T05:34:43;100345.38;;;14.44;100.00
74524;BME280;63074;44.696;10.358;2023-05-19T05:37:10;100349.09;;;14.38;100.00
74524;BME280;63074;44.696;10.358;2023-05-19T05:39:36;100349.91;;;14.38;100.00
74524;BME280;63074;44.696;10.358;2023-05-19T05:42:02;100352.72;;;14.27;100.00
74524;BME280;63074;44.696;10.358;2023-05-19T05:44:30;100355.38;;;14.22;100.00
74524;BME280;63074;44.696;10.358;2023-05-19T05:46:56;100353.34;;;13.90;100.00
74524;BME280;63074;44.696;10.358;2023-05-19T05:49:22;100363.41;;;13.95;100.00
74524;BME280;63074;44.696;10.358;2023-05-19T05:51:49;100358.66;;;14.24;100.00
74524;BME280;63074;44.696;10.358;2023-05-19T05:54:18;100365.44;;;14.48;100.00
74524;BME280;63074;44.696;10.358;2023-05-19T05:56:46;100359.59;;;14.12;100.00
74524;BME280;63074;44.696;10.358;2023-05-19T05:59:12;100364.22;;;14.17;100.00
74524;BME280;63074;44.696;10.358;2023-05-19T06:01:38;100367.88;;;14.06;100.00
74524;BME280;63074;44.696;10.358;2023-05-19T06:04:07;100373.03;;;13.85;100.00
74524;BME280;63074;44.696;10.358;2023-05-19T06:06:33;100378.44;;;14.07;100.00
74524;BME280;63074;44.696;10.358;2023-05-19T06:09:00;100368.31;;;14.19;100.00
74524;BME280;63074;44.696;10.358;2023-05-19T06:11:27;100369.88;;;14.15;100.00
74524;BME280;63074;44.696;10.358;2023-05-19T06:13:53;100374.13;;;14.06;100.00
74524;BME280;63074;44.696;10.358;2023-05-19T06:16:19;100365.13;;;14.01;100.00
74524;BME280;63074;44.696;10.358;2023-05-19T06:18:46;100365.38;;;14.21;100.00
74524;BME280;63074;44.696;10.358;2023-05-19T06:21:12;100370.91;;;14.31;100.00
74524;BME280;63074;44.696;10.358;2023-05-19T06:23:41;100370.66;;;14.33;100.00
74524;BME280;63074;44.696;10.358;2023-05-19T06:26:07;100365.47;;;14.75;100.00
74524;BME280;63074;44.696;10.358;2023-05-19T06:28:33;100365.06;;;14.39;100.00
74524;BME280;63074;44.696;10.358;2023-05-19T06:31:00;100350.97;;;14.59;100.00
74524;BME280;63074;44.696;10.358;2023-05-19T06:33:26;100362.88;;;14.36;100.00
74524;BME280;63074;44.696;10.358;2023-05-19T06:35:52;100370.91;;;14.31;100.00
74524;BME280;63074;44.696;10.358;2023-05-19T06:38:18;100379.84;;;14.53;100.00
74524;BME280;63074;44.696;10.358;2023-05-19T06:40:44;100379.38;;;14.18;100.00
74524;BME280;63074;44.696;10.358;2023-05-19T06:43:10;100371.97;;;14.08;100.00
74524;BME280;63074;44.696;10.358;2023-05-19T06:45:37;100438.78;;;14.13;100.00
74524;BME280;63074;44.696;10.358;2023-05-19T06:48:03;100488.03;;;14.37;100.00
74524;BME280;63074;44.696;10.358;2023-05-19T06:50:29;100475.06;;;14.00;100.00
74524;BME280;63074;44.696;10.358;2023-05-19T06:52:55;100474.13;;;14.28;100.00
74524;BME280;63074;44.696;10.358;2023-05-19T06:55:23;100429.16;;;14.61;100.00
74524;BME280;63074;44.696;10.358;2023-05-19T06:57:49;100394.00;;;14.88;100.00
74524;BME280;63074;44.696;10.358;2023-05-19T07:00:16;100373.31;;;14.49;100.00
74524;BME280;63074;44.696;10.358;2023-05-19T07:02:43;100379.41;;;14.62;100.00
74524;BME280;63074;44.696;10.358;2023-05-19T07:05:09;100374.34;;;14.43;100.00
74524;BME280;63074;44.696;10.358;2023-05-19T07:07:36;100380.22;;;14.62;100.00
74524;BME280;63074;44.696;10.358;2023-05-19T07:10:02;100372.31;;;14.82;100.00
74524;BME280;63074;44.696;10.358;2023-05-19T07:12:28;100372.06;;;14.84;100.00
74524;BME280;63074;44.696;10.358;2023-05-19T07:14:54;100374.69;;;14.79;100.00
74524;BME280;63074;44.696;10.358;2023-05-19T07:17:20;100366.66;;;15.16;100.00
74524;BME280;63074;44.696;10.358;2023-05-19T07:19:47;100369.03;;;15.07;100.00
74524;BME280;63074;44.696;10.358;2023-05-19T07:22:13;100359.22;;;15.28;100.00
74524;BME280;63074;44.696;10.358;2023-05-19T07:24:39;100357.31;;;15.29;100.00
74524;BME280;63074;44.696;10.358;2023-05-19T07:27:05;100359.22;;;15.33;100.00
74524;BME280;63074;44.696;10.358;2023-05-19T07:29:32;100355.81;;;15.48;100.00
74524;BME280;63074;44.696;10.358;2023-05-19T07:31:58;100347.31;;;15.34;100.00
74524;BME280;63074;44.696;10.358;2023-05-19T07:34:25;100331.78;;;15.19;100.00
74524;BME280;63074;44.696;10.358;2023-05-19T07:36:52;100350.16;;;15.49;100.00
74524;BME280;63074;44.696;10.358;2023-05-19T07:39:18;100356.13;;;15.51;100.00
74524;BME280;63074;44.696;10.358;2023-05-19T07:41:45;100355.13;;;15.63;100.00
74524;BME280;63074;44.696;10.358;2023-05-19T07:44:17;100351.44;;;15.79;100.00
74524;BME280;63074;44.696;10.358;2023-05-19T07:46:43;100345.97;;;15.37;100.00
74524;BME280;63074;44.696;10.358;2023-05-19T07:49:10;100351.78;;;15.50;100.00
74524;BME280;63074;44.696;10.358;2023-05-19T07:51:36;100357.00;;;15.62;100.00
74524;BME280;63074;44.696;10.358;2023-05-19T07:54:03;100348.63;;;16.11;100.00
74524;BME280;63074;44.696;10.358;2023-05-19T07:56:30;100337.31;;;16.29;100.00
74524;BME280;63074;44.696;10.358;2023-05-19T07:58:56;100324.06;;;16.53;100.00
74524;BME280;63074;44.696;10.358;2023-05-19T08:01:22;100326.34;;;15.51;100.00
74524;BME280;63074;44.696;10.358;2023-05-19T08:03:48;100332.84;;;15.56;100.00
74524;BME280;63074;44.696;10.358;2023-05-19T08:06:14;100334.03;;;15.33;100.00
74524;BME280;63074;44.696;10.358;2023-05-19T08:08:41;100345.72;;;15.38;100.00
74524;BME280;63074;44.696;10.358;2023-05-19T08:11:07;100350.25;;;15.28;100.00
74524;BME280;63074;44.696;10.358;2023-05-19T08:13:33;100347.56;;;14.96;100.00
74524;BME280;63074;44.696;10.358;2023-05-19T08:16:00;100359.47;;;15.27;100.00
74524;BME280;63074;44.696;10.358;2023-05-19T08:18:26;100360.59;;;15.36;100.00
74524;BME280;63074;44.696;10.358;2023-05-19T08:20:52;100358.31;;;15.54;100.00
74524;BME280;63074;44.696;10.358;2023-05-19T08:23:18;100355.94;;;15.58;100.00
74524;BME280;63074;44.696;10.358;2023-05-19T08:25:45;100344.22;;;15.52;100.00
74524;BME280;63074;44.696;10.358;2023-05-19T08:28:11;100339.13;;;15.56;100.00
74524;BME280;63074;44.696;10.358;2023-05-19T08:30:37;100357.50;;;15.96;100.00
74524;BME280;63074;44.696;10.358;2023-05-19T08:33:04;100355.97;;;15.68;100.00
74524;BME280;63074;44.696;10.358;2023-05-19T08:35:31;100350.59;;;15.73;100.00
74524;BME280;63074;44.696;10.358;2023-05-19T08:37:57;100351.84;;;15.61;100.00
74524;BME280;63074;44.696;10.358;2023-05-19T08:40:23;100354.16;;;15.42;100.00
74524;BME280;63074;44.696;10.358;2023-05-19T08:42:52;100362.00;;;15.43;100.00
74524;BME280;63074;44.696;10.358;2023-05-19T08:45:19;100357.91;;;15.73;100.00
74524;BME280;63074;44.696;10.358;2023-05-19T08:47:46;100359.84;;;15.77;100.00
74524;BME280;63074;44.696;10.358;2023-05-19T08:50:16;100361.13;;;15.70;100.00
74524;BME280;63074;44.696;10.358;2023-05-19T08:52:52;100364.25;;;15.51;100.00
74524;BME280;63074;44.696;10.358;2023-05-19T08:57:52;100361.34;;;15.63;100.00
74524;BME280;63074;44.696;10.358;2023-05-19T09:00:19;100369.16;;;15.54;100.00
74524;BME280;63074;44.696;10.358;2023-05-19T09:02:47;100355.31;;;15.51;100.00
74524;BME280;63074;44.696;10.358;2023-05-19T09:05:15;100369.66;;;15.51;100.00
74524;BME280;63074;44.696;10.358;2023-05-19T09:07:43;100370.94;;;15.76;100.00
74524;BME280;63074;44.696;10.358;2023-05-19T09:10:09;100359.63;;;15.84;100.00
74524;BME280;63074;44.696;10.358;2023-05-19T09:12:42;100366.25;;;15.66;100.00
74524;BME280;63074;44.696;10.358;2023-05-19T09:15:10;100370.44;;;15.47;100.00
74524;BME280;63074;44.696;10.358;2023-05-19T09:17:37;100375.97;;;15.62;100.00
74524;BME280;63074;44.696;10.358;2023-05-19T09:20:05;100368.31;;;15.54;100.00
74524;BME280;63074;44.696;10.358;2023-05-19T09:22:45;100359.75;;;15.30;100.00
74524;BME280;63074;44.696;10.358;2023-05-19T09:25:24;100367.75;;;15.15;100.00
74524;BME280;63074;44.696;10.358;2023-05-19T09:27:52;100364.69;;;15.38;100.00
74524;BME280;63074;44.696;10.358;2023-05-19T09:30:19;100353.84;;;15.38;100.00
74524;BME280;63074;44.696;10.358;2023-05-19T09:32:46;100351.66;;;15.35;100.00
74524;BME280;63074;44.696;10.358;2023-05-19T09:35:14;100361.34;;;15.58;100.00
74524;BME280;63074;44.696;10.358;2023-05-19T09:37:45;100354.91;;;15.37;100.00
74524;BME280;63074;44.696;10.358;2023-05-19T09:40:15;100367.94;;;15.72;100.00
74524;BME280;63074;44.696;10.358;2023-05-19T09:42:41;100357.38;;;15.76;100.00
74524;BME280;63074;44.696;10.358;2023-05-19T09:45:09;100362.81;;;15.76;100.00
74524;BME280;63074;44.696;10.358;2023-05-19T09:47:39;100375.41;;;15.60;100.00
74524;BME280;63074;44.696;10.358;2023-05-19T09:50:10;100366.84;;;15.73;100.00
74524;BME280;63074;44.696;10.358;2023-05-19T09:52:42;100358.69;;;15.68;100.00
74524;BME280;63074;44.696;10.358;2023-05-19T09:55:10;100354.59;;;15.66;100.00
74524;BME280;63074;44.696;10.358;2023-05-19T09:57:38;100358.75;;;15.78;100.00
74524;BME280;63074;44.696;10.358;2023-05-19T10:00:05;100369.91;;;15.82;100.00
74524;BME280;63074;44.696;10.358;2023-05-19T10:02:46;100375.81;;;15.42;100.00
74524;BME280;63074;44.696;10.358;2023-05-19T10:05:17;100364.38;;;15.35;100.00
74524;BME280;63074;44.696;10.358;2023-05-19T10:07:52;100366.66;;;15.48;100.00
74524;BME280;63074;44.696;10.358;2023-05-19T10:10:20;100374.91;;;15.31;100.00
74524;BME280;63074;44.696;10.358;2023-05-19T10:12:49;100367.34;;;15.33;100.00
74524;BME280;63074;44.696;10.358;2023-05-19T10:15:17;100376.78;;;15.31;100.00
74524;BME280;63074;44.696;10.358;2023-05-19T10:17:44;100367.50;;;15.53;100.00
74524;BME280;63074;44.696;10.358;2023-05-19T10:20:12;100375.59;;;15.85;100.00
74524;BME280;63074;44.696;10.358;2023-05-19T10:22:43;100364.22;;;15.83;100.00
74524;BME280;63074;44.696;10.358;2023-05-19T10:25:10;100355.81;;;15.85;100.00
74524;BME280;63074;44.696;10.358;2023-05-19T10:27:46;100364.63;;;15.65;100.00
74524;BME280;63074;44.696;10.358;2023-05-19T10:32:55;100357.88;;;15.36;100.00
74524;BME280;63074;44.696;10.358;2023-05-19T10:35:41;100404.25;;;15.76;100.00
74524;BME280;63074;44.696;10.358;2023-05-19T10:38:27;100423.41;;;15.65;100.00
74524;BME280;63074;44.696;10.358;2023-05-19T10:46:42;100361.16;;;15.38;100.00
74524;BME280;63074;44.696;10.358;2023-05-19T10:49:09;100365.25;;;15.08;100.00
74524;BME280;63074;44.696;10.358;2023-05-19T10:51:35;100373.72;;;15.17;100.00
74524;BME280;63074;44.696;10.358;2023-05-19T10:54:02;100369.47;;;15.58;100.00
74524;BME280;63074;44.696;10.358;2023-05-19T10:56:35;100367.75;;;15.84;100.00
74524;BME280;63074;44.696;10.358;2023-05-19T10:59:07;100370.00;;;15.60;100.00
74524;BME280;63074;44.696;10.358;2023-05-19T11:01:53;100359.56;;;15.79;100.00
74524;BME280;63074;44.696;10.358;2023-05-19T11:04:44;100366.38;;;15.81;100.00
74524;BME280;63074;44.696;10.358;2023-05-19T11:07:18;100358.72;;;15.73;100.00
74524;BME280;63074;44.696;10.358;2023-05-19T11:09:53;100359.09;;;15.87;100.00
74524;BME280;63074;44.696;10.358;2023-05-19T11:12:23;100358.00;;;15.93;100.00
74524;BME280;63074;44.696;10.358;2023-05-19T11:14:54;100361.03;;;15.97;100.00
74524;BME280;63074;44.696;10.358;2023-05-19T11:17:20;100356.94;;;15.94;100.00
74524;BME280;63074;44.696;10.358;2023-05-19T11:19:55;100340.09;;;16.54;100.00
74524;BME280;63074;44.696;10.358;2023-05-19T11:22:25;100336.41;;;16.03;100.00
74524;BME280;63074;44.696;10.358;2023-05-19T11:24:55;100337.84;;;16.26;100.00
74524;BME280;63074;44.696;10.358;2023-05-19T11:27:28;100335.91;;;16.11;100.00
74524;BME280;63074;44.696;10.358;2023-05-19T11:32:35;100341.75;;;15.51;100.00
74524;BME280;63074;44.696;10.358;2023-05-19T11:35:04;100343.28;;;15.74;100.00
74524;BME280;63074;44.696;10.358;2023-05-19T11:37:32;100353.72;;;16.02;100.00
74524;BME280;63074;44.696;10.358;2023-05-19T11:40:02;100351.16;;;15.75;100.00
74524;BME280;63074;44.696;10.358;2023-05-19T11:42:31;100352.22;;;15.74;100.00
74524;BME280;63074;44.696;10.358;2023-05-19T11:44:57;100349.22;;;15.71;100.00
74524;BME280;63074;44.696;10.358;2023-05-19T11:47:23;100340.16;;;15.97;100.00
74524;BME280;63074;44.696;10.358;2023-05-19T11:49:51;100340.31;;;15.75;100.00
74524;BME280;63074;44.696;10.358;2023-05-19T11:52:19;100353.13;;;15.48;100.00
74524;BME280;63074;44.696;10.358;2023-05-19T11:54:47;100349.50;;;15.37;100.00
74524;BME280;63074;44.696;10.358;2023-05-19T11:57:14;100347.50;;;15.23;100.00
74524;BME280;63074;44.696;10.358;2023-05-19T11:59:40;100363.31;;;15.73;100.00
74524;BME280;63074;44.696;10.358;2023-05-19T12:02:23;100352.34;;;15.52;100.00
74524;BME280;63074;44.696;10.358;2023-05-19T12:04:51;100349.03;;;15.45;100.00
74524;BME280;63074;44.696;10.358;2023-05-19T12:07:24;100350.88;;;15.40;100.00
74524;BME280;63074;44.696;10.358;2023-05-19T12:09:51;100354.72;;;15.44;100.00
74524;BME280;63074;44.696;10.358;2023-05-19T12:12:21;100347.97;;;15.83;100.00
74524;BME280;63074;44.696;10.358;2023-05-19T12:14:49;100336.78;;;15.38;100.00
74524;BME280;63074;44.696;10.358;2023-05-19T12:17:20;100343.25;;;15.69;100.00
74524;BME280;63074;44.696;10.358;2023-05-19T12:19:47;100338.66;;;15.69;100.00
74524;BME280;63074;44.696;10.358;2023-05-19T12:22:17;100343.66;;;15.88;100.00
74524;BME280;63074;44.696;10.358;2023-05-19T12:24:44;100340.56;;;15.74;100.00
74524;BME280;63074;44.696;10.358;2023-05-19T12:27:18;100343.47;;;15.62;100.00
74524;BME280;63074;44.696;10.358;2023-05-19T12:29:55;100338.19;;;15.45;100.00
74524;BME280;63074;44.696;10.358;2023-05-19T12:32:26;100343.66;;;15.93;100.00
74524;BME280;63074;44.696;10.358;2023-05-19T12:34:55;100332.25;;;15.85;100.00
74524;BME280;63074;44.696;10.358;2023-05-19T12:37:25;100335.50;;;15.82;100.00
74524;BME280;63074;44.696;10.358;2023-05-19T12:39:54;100335.78;;;15.86;100.00
74524;BME280;63074;44.696;10.358;2023-05-19T12:42:20;100333.78;;;15.71;100.00
74524;BME280;63074;44.696;10.358;2023-05-19T12:44:52;100344.69;;;15.81;100.00
74524;BME280;63074;44.696;10.358;2023-05-19T12:47:19;100346.59;;;15.81;100.00
74524;BME280;63074;44.696;10.358;2023-05-19T12:52:31;100337.38;;;15.82;100.00
74524;BME280;63074;44.696;10.358;2023-05-19T12:55:04;100341.69;;;16.40;100.00
74524;BME280;63074;44.696;10.358;2023-05-19T12:57:34;100335.78;;;15.86;100.00
74524;BME280;63074;44.696;10.358;2023-05-19T13:00:11;100335.22;;;15.89;100.00
74524;BME280;63074;44.696;10.358;2023-05-19T13:03:01;100335.00;;;15.53;100.00
74524;BME280;63074;44.696;10.358;2023-05-19T13:05:34;100341.84;;;15.61;100.00